Terminal Aerodrome Forecast
Issued by NWS Wilmington, OH

Current Version | Previous Version | Text Only | Print | Product List | Glossary Off
Versions: 1 2 3 4 5 6 7 8 9 10 11 12 13 14 15 16 17 18 19 20 21 22 23 24 25 26

000
FTUS41 KILN 211000 AAE
TAFDAY
TAF AMD
KDAY 211011Z 2110/2206 24012G18KT P6SM SCT015 OVC035
     FM211100 24012G20KT P6SM BKN015 OVC020
     FM211500 27015G25KT P6SM SCT040
     FM211800 28018G28KT P6SM BKN050
     FM220200 31014KT P6SM OVC040=

USA.gov is the U.S. government's official web portal to all federal, state and local government web resources and services.